Bittern — V7SR7 — position and weather

sailwx.info

Track history (hours):
 
Tides and Currents Weather Stations Pressure Air Temp Water Temp Dewpoint Dewpoint Depression Visibility Wind Speed Wind Dir Waves Ship Positions

Bittern

Last reported at 2018-Jun-11 14:33 UTC. Time now 2018-Jun-20 15:20 UTC.
Position N 28°35' W 013°22'.
Warning: this ship's position is 9 days out of date.

Length 189 m; draft 6.9 m.

Type: Cargo ship. MMSI: 538003710.

Date/timePositionNaut miles runAvg speedWind from/ knotsBaromVisibWave heightAir tempDewpointWater temp
2018-Jun-11 14:33N 28°35' W 013°22'113.7
2018-Jun-11 14:28N 28°36' W 013°21'  
2018-Jun-07 04:59N 49°39' W 003°48'813.7
2018-Jun-07 04:25N 49°43' W 003°38'713.5
2018-Jun-07 03:54N 49°47' W 003°29'513.2
2018-Jun-07 03:30N 49°49' W 003°22'712.9
2018-Jun-07 03:00N 49°53' W 003°13'612.8
2018-Jun-07 02:30N 49°56' W 003°05'612.5
2018-Jun-07 02:00N 49°58' W 002°56'612.2
2018-Jun-07 01:30N 50°00' W 002°47'611.9
2018-Jun-07 01:00N 50°02' W 002°38'611.7
2018-Jun-07 00:30N 50°04' W 002°30'1811.8
2018-Jun-06 23:00N 50°10' W 002°03'612.4
2018-Jun-06 22:30N 50°11' W 001°54'612.8
2018-Jun-06 22:00N 50°13' W 001°45'713.2
2018-Jun-06 21:31N 50°15' W 001°35'713.8
2018-Jun-06 21:00N 50°17' W 001°24'2314.8
2018-Jun-06 19:26N 50°23' W 000°49'614.9
2018-Jun-06 19:00N 50°25' W 000°39'714.4
2018-Jun-06 18:30N 50°26' W 000°28'714.2
2018-Jun-06 17:59N 50°28' W 000°17'1213.8
2018-Jun-06 17:08N 50°32' E 000°01'413.4
2018-Jun-06 16:50N 50°33' E 000°07'613.2
2018-Jun-06 16:22N 50°35' E 000°16'513.1
2018-Jun-06 16:01N 50°36' E 000°23'612.8
2018-Jun-06 15:31N 50°38' E 000°33'612.5
2018-Jun-06 15:01N 50°41' E 000°41'612.7
2018-Jun-06 14:30N 50°45' E 000°49'612.8
2018-Jun-06 14:00N 50°48' E 000°57'713.3
2018-Jun-06 13:28N 50°53' E 001°06'1114.3
2018-Jun-06 12:40N 51°00' E 001°20'315.2
2018-Jun-06 12:30N 51°02' E 001°22'816.1
2018-Jun-06 12:00N 51°07' E 001°33'816.0
2018-Jun-06 11:30N 51°12' E 001°43'714.7
2018-Jun-06 11:00N 51°18' E 001°49'714.3
2018-Jun-06 10:30N 51°25' E 001°53'713.6
2018-Jun-06 10:00N 51°30' E 002°00'713.1
2018-Jun-06 09:30N 51°35' E 002°07'612.7
2018-Jun-06 09:00N 51°39' E 002°14'612.5
2018-Jun-06 08:30N 51°44' E 002°21'612.1
2018-Jun-06 08:00N 51°48' E 002°28'611.8
2018-Jun-06 07:29N 51°53' E 002°34'511.3
2018-Jun-06 07:00N 51°58' E 002°36'611.7
2018-Jun-06 06:29N 52°04' E 002°36'611.9
2018-Jun-06 06:00N 52°10' E 002°38'612.4
2018-Jun-06 05:30N 52°15' E 002°43'612.7
2018-Jun-06 05:00N 52°21' E 002°48'713.0
2018-Jun-06 04:30N 52°27' E 002°53'713.3
2018-Jun-06 04:00N 52°33' E 002°58'713.7
2018-Jun-06 03:30N 52°39' E 003°02'713.9
2018-Jun-06 03:00N 52°45' E 003°07'714.0
2018-Jun-06 02:30N 52°51' E 003°13'714.0
2018-Jun-06 02:00N 52°58' E 003°17'714.2
2018-Jun-06 01:30N 53°05' E 003°21'714.0
2018-Jun-06 01:00N 53°11' E 003°24'713.9
2018-Jun-06 00:29N 53°18' E 003°28'713.3
2018-Jun-06 00:00N 53°24' E 003°31'613.0
2018-Jun-05 23:30N 53°30' E 003°34'712.8
2018-Jun-05 22:56N 53°37' E 003°38'612.6
2018-Jun-05 22:28N 53°43' E 003°41'712.5
2018-Jun-05 21:55N 53°47' E 003°51'512.5
2018-Jun-05 21:30N 53°50' E 003°58'712.6
2018-Jun-05 20:56N 53°54' E 004°08'712.7
2018-Jun-05 20:24N 53°58' E 004°17'612.5
2018-Jun-05 19:54N 54°03' E 004°24'613.0
2018-Jun-05 19:27N 54°08' E 004°29'19512.8
2018-Jun-05 04:12N 56°55' E 007°26'213.2
2018-Jun-05 04:00N 56°57' E 007°29'713.1
2018-Jun-05 03:30N 57°03' E 007°35'612.9
2018-Jun-05 03:00N 57°07' E 007°44'612.9
2018-Jun-05 02:30N 57°11' E 007°53'612.7
2018-Jun-05 02:00N 57°15' E 008°02'612.5
2018-Jun-05 01:30N 57°19' E 008°10'612.3
2018-Jun-05 01:00N 57°23' E 008°19'612.0
2018-Jun-05 00:30N 57°27' E 008°28'612.2
2018-Jun-05 00:00N 57°31' E 008°36'612.3
2018-Jun-04 23:30N 57°35' E 008°45'912.3
2018-Jun-04 22:47N 57°40' E 008°58'312.1
2018-Jun-04 22:30N 57°41' E 009°04'612.3
2018-Jun-04 22:00N 57°42' E 009°16'1912.2
2018-Jun-04 20:28N 57°46' E 009°50'612.1
2018-Jun-04 20:00N 57°48' E 010°00'2311.8
2018-Jun-04 18:05N 57°49' E 010°43'112.3
2018-Jun-04 18:00N 57°49' E 010°44'611.7
2018-Jun-04 17:30N 57°44' E 010°49'612.0
2018-Jun-04 17:00N 57°39' E 010°42'0 0.4
2018-Jun-04 16:20N 57°39' E 010°42'0 0.0
2018-Jun-04 15:56N 57°39' E 010°42'0 0.1
2018-Jun-04 15:30N 57°39' E 010°42'0 0.1
2018-Jun-04 14:59N 57°39' E 010°42'0 0.0
2018-Jun-04 14:30N 57°39' E 010°42'0 0.0
2018-Jun-04 13:16N 57°39' E 010°42'0 0.0
2018-Jun-04 12:51N 57°39' E 010°42'0 0.0
2018-Jun-04 12:29N 57°39' E 010°42'0 0.0
2018-Jun-04 12:00N 57°39' E 010°42'0 0.0
2018-Jun-04 11:28N 57°39' E 010°42'0 0.0
2018-Jun-04 11:00N 57°39' E 010°42'0 0.0
2018-Jun-04 10:30N 57°39' E 010°42'0 0.1
2018-Jun-04 10:00N 57°39' E 010°42'0 0.1
2018-Jun-04 08:43N 57°39' E 010°41'0 0.1
2018-Jun-04 08:29N 57°39' E 010°41'0 0.1
2018-Jun-04 07:52N 57°39' E 010°41'0 0.2
2018-Jun-04 07:17N 57°39' E 010°42'0 0.1
2018-Jun-04 06:23N 57°39' E 010°42'0 0.0
2018-Jun-04 06:00N 57°39' E 010°42'0 0.1
2018-Jun-04 05:30N 57°39' E 010°42'0 0.1
2018-Jun-04 05:00N 57°39' E 010°42'0 0.0
2018-Jun-04 04:19N 57°39' E 010°42'0 0.1
2018-Jun-04 03:43N 57°39' E 010°42'1 1.8
2018-Jun-04 03:14N 57°40' E 010°43'210.2
2018-Jun-04 03:00N 57°38' E 010°47'510.1
2018-Jun-04 02:30N 57°36' E 010°55'510.7
2018-Jun-04 02:00N 57°34' E 011°04'611.5
2018-Jun-04 01:30N 57°31' E 011°14'510.9
2018-Jun-04 01:00N 57°29' E 011°23'510.9
2018-Jun-04 00:30N 57°24' E 011°29'612.1
2018-Jun-04 00:00N 57°19' E 011°33'612.1
2018-Jun-03 23:30N 57°13' E 011°37'1011.9
2018-Jun-03 22:39N 57°04' E 011°44'212.0
2018-Jun-03 22:29N 57°02' E 011°45'612.0
2018-Jun-03 21:58N 56°56' E 011°48'4112.3
2018-Jun-03 18:38N 56°16' E 012°09'1612.2
2018-Jun-03 17:19N 56°07' E 012°33'3 9.4
2018-Jun-03 17:00N 56°05' E 012°36'5 9.9
2018-Jun-03 16:30N 56°01' E 012°41'510.1
2018-Jun-03 16:00N 55°56' E 012°39'612.2
2018-Jun-03 15:30N 55°50' E 012°42'612.2
2018-Jun-03 15:00N 55°44' E 012°41'510.9
2018-Jun-03 14:30N 55°38' E 012°42'4 8.9
2018-Jun-03 14:00N 55°34' E 012°42'4 8.7
2018-Jun-03 13:30N 55°29' E 012°43'3 5.3
2018-Jun-03 13:00N 55°27' E 012°42'3 5.5
2018-Jun-03 12:30N 55°24' E 012°42'4 7.6
2018-Jun-03 12:00N 55°20' E 012°41'510.0
2018-Jun-03 11:30N 55°17' E 012°48'611.9
2018-Jun-03 11:00N 55°16' E 012°57'612.7
2018-Jun-03 10:30N 55°15' E 013°09'612.8
2018-Jun-03 10:00N 55°14' E 013°20'613.0
2018-Jun-03 09:30N 55°14' E 013°31'713.3
2018-Jun-03 09:00N 55°13' E 013°43'813.2
2018-Jun-03 08:25N 55°13' E 013°56'512.9
2018-Jun-03 08:01N 55°13' E 014°05'712.1
2018-Jun-03 07:28N 55°14' E 014°17'613.1
2018-Jun-03 07:00N 55°19' E 014°23'713.2
2018-Jun-03 06:30N 55°24' E 014°31'713.2
2018-Jun-03 06:00N 55°28' E 014°40'713.2
2018-Jun-03 05:30N 55°31' E 014°51'713.2
2018-Jun-03 05:00N 55°34' E 015°01'613.0
2018-Jun-03 04:30N 55°37' E 015°12'612.8
2018-Jun-03 04:00N 55°39' E 015°23'812.8
2018-Jun-03 03:21N 55°41' E 015°37'712.7
2018-Jun-03 02:49N 55°42' E 015°48'1412.6
2018-Jun-03 01:43N 55°46' E 016°12'312.4
2018-Jun-03 01:30N 55°47' E 016°17'712.4
2018-Jun-03 00:58N 55°48' E 016°28'2212.9
2018-Jun-02 23:17N 55°48' E 017°07'613.1
2018-Jun-02 22:49N 55°47' E 017°18'412.9
2018-Jun-02 22:29N 55°47' E 017°25'813.0
2018-Jun-02 21:51N 55°47' E 017°40'513.0
2018-Jun-02 21:27N 55°47' E 017°49'813.1
2018-Jun-02 20:48N 55°47' E 018°04'413.0
2018-Jun-02 20:30N 55°46' E 018°11'813.1
2018-Jun-02 19:52N 55°46' E 018°26'713.0
2018-Jun-02 19:18N 55°46' E 018°39'413.0
2018-Jun-02 19:00N 55°46' E 018°46'713.0
2018-Jun-02 18:28N 55°46' E 018°58'612.9
2018-Jun-02 18:00N 55°45' E 019°09'612.9
2018-Jun-02 17:30N 55°45' E 019°21'613.0
2018-Jun-02 17:00N 55°45' E 019°32'713.0
2018-Jun-02 16:30N 55°45' E 019°44'713.1
2018-Jun-02 16:00N 55°45' E 019°55'613.0
2018-Jun-02 15:30N 55°44' E 020°07'713.0
2018-Jun-02 14:59N 55°44' E 020°19'713.1
2018-Jun-02 14:28N 55°44' E 020°31'613.1
2018-Jun-02 14:00N 55°44' E 020°42'713.1
2018-Jun-02 13:30N 55°44' E 020°53'510.9
2018-Jun-02 13:00N 55°44' E 021°03'3 0.8
2018-Jun-02 08:35N 55°42' E 021°08'  
Track history (hours):
 
Tides and Currents Weather Stations Pressure Air Temp Water Temp Dewpoint Dewpoint Depression Visibility Wind Speed Wind Dir Waves Ship Positions

Bittern

Last reported at 2018-Jun-11 14:33 UTC. Time now 2018-Jun-20 15:20 UTC.
Position N 28°35' W 013°22'.
Warning: this ship's position is 9 days out of date.

Length 189 m; draft 6.9 m.

Type: Cargo ship. MMSI: 538003710.

Date/timePositionNaut miles runAvg speedWind from/ knotsBaromVisibWave heightAir tempDewpointWater temp
2018-Jun-11 14:33N 28°35' W 013°22'113.7
2018-Jun-11 14:28N 28°36' W 013°21'  
2018-Jun-07 04:59N 49°39' W 003°48'813.7
2018-Jun-07 04:25N 49°43' W 003°38'713.5
2018-Jun-07 03:54N 49°47' W 003°29'513.2
2018-Jun-07 03:30N 49°49' W 003°22'712.9
2018-Jun-07 03:00N 49°53' W 003°13'612.8
2018-Jun-07 02:30N 49°56' W 003°05'612.5
2018-Jun-07 02:00N 49°58' W 002°56'612.2
2018-Jun-07 01:30N 50°00' W 002°47'611.9
2018-Jun-07 01:00N 50°02' W 002°38'611.7
2018-Jun-07 00:30N 50°04' W 002°30'1811.8
2018-Jun-06 23:00N 50°10' W 002°03'612.4
2018-Jun-06 22:30N 50°11' W 001°54'612.8
2018-Jun-06 22:00N 50°13' W 001°45'713.2
2018-Jun-06 21:31N 50°15' W 001°35'713.8
2018-Jun-06 21:00N 50°17' W 001°24'2314.8
2018-Jun-06 19:26N 50°23' W 000°49'614.9
2018-Jun-06 19:00N 50°25' W 000°39'714.4
2018-Jun-06 18:30N 50°26' W 000°28'714.2
2018-Jun-06 17:59N 50°28' W 000°17'1213.8
2018-Jun-06 17:08N 50°32' E 000°01'413.4
2018-Jun-06 16:50N 50°33' E 000°07'613.2
2018-Jun-06 16:22N 50°35' E 000°16'513.1
2018-Jun-06 16:01N 50°36' E 000°23'612.8
2018-Jun-06 15:31N 50°38' E 000°33'612.5
2018-Jun-06 15:01N 50°41' E 000°41'612.7
2018-Jun-06 14:30N 50°45' E 000°49'612.8
2018-Jun-06 14:00N 50°48' E 000°57'713.3
2018-Jun-06 13:28N 50°53' E 001°06'1114.3
2018-Jun-06 12:40N 51°00' E 001°20'315.2
2018-Jun-06 12:30N 51°02' E 001°22'816.1
2018-Jun-06 12:00N 51°07' E 001°33'816.0
2018-Jun-06 11:30N 51°12' E 001°43'714.7
2018-Jun-06 11:00N 51°18' E 001°49'714.3
2018-Jun-06 10:30N 51°25' E 001°53'713.6
2018-Jun-06 10:00N 51°30' E 002°00'713.1
2018-Jun-06 09:30N 51°35' E 002°07'612.7
2018-Jun-06 09:00N 51°39' E 002°14'612.5
2018-Jun-06 08:30N 51°44' E 002°21'612.1
2018-Jun-06 08:00N 51°48' E 002°28'611.8
2018-Jun-06 07:29N 51°53' E 002°34'511.3
2018-Jun-06 07:00N 51°58' E 002°36'611.7
2018-Jun-06 06:29N 52°04' E 002°36'611.9
2018-Jun-06 06:00N 52°10' E 002°38'612.4
2018-Jun-06 05:30N 52°15' E 002°43'612.7
2018-Jun-06 05:00N 52°21' E 002°48'713.0
2018-Jun-06 04:30N 52°27' E 002°53'713.3
2018-Jun-06 04:00N 52°33' E 002°58'713.7
2018-Jun-06 03:30N 52°39' E 003°02'713.9
2018-Jun-06 03:00N 52°45' E 003°07'714.0
2018-Jun-06 02:30N 52°51' E 003°13'714.0
2018-Jun-06 02:00N 52°58' E 003°17'714.2
2018-Jun-06 01:30N 53°05' E 003°21'714.0
2018-Jun-06 01:00N 53°11' E 003°24'713.9
2018-Jun-06 00:29N 53°18' E 003°28'713.3
2018-Jun-06 00:00N 53°24' E 003°31'613.0
2018-Jun-05 23:30N 53°30' E 003°34'712.8
2018-Jun-05 22:56N 53°37' E 003°38'612.6
2018-Jun-05 22:28N 53°43' E 003°41'712.5
2018-Jun-05 21:55N 53°47' E 003°51'512.5
2018-Jun-05 21:30N 53°50' E 003°58'712.6
2018-Jun-05 20:56N 53°54' E 004°08'712.7
2018-Jun-05 20:24N 53°58' E 004°17'612.5
2018-Jun-05 19:54N 54°03' E 004°24'613.0
2018-Jun-05 19:27N 54°08' E 004°29'19512.8
2018-Jun-05 04:12N 56°55' E 007°26'213.2
2018-Jun-05 04:00N 56°57' E 007°29'713.1
2018-Jun-05 03:30N 57°03' E 007°35'612.9
2018-Jun-05 03:00N 57°07' E 007°44'612.9
2018-Jun-05 02:30N 57°11' E 007°53'612.7
2018-Jun-05 02:00N 57°15' E 008°02'612.5
2018-Jun-05 01:30N 57°19' E 008°10'612.3
2018-Jun-05 01:00N 57°23' E 008°19'612.0
2018-Jun-05 00:30N 57°27' E 008°28'612.2
2018-Jun-05 00:00N 57°31' E 008°36'612.3
2018-Jun-04 23:30N 57°35' E 008°45'912.3
2018-Jun-04 22:47N 57°40' E 008°58'312.1
2018-Jun-04 22:30N 57°41' E 009°04'612.3
2018-Jun-04 22:00N 57°42' E 009°16'1912.2
2018-Jun-04 20:28N 57°46' E 009°50'612.1
2018-Jun-04 20:00N 57°48' E 010°00'2311.8
2018-Jun-04 18:05N 57°49' E 010°43'112.3
2018-Jun-04 18:00N 57°49' E 010°44'611.7
2018-Jun-04 17:30N 57°44' E 010°49'612.0
2018-Jun-04 17:00N 57°39' E 010°42'0 0.4
2018-Jun-04 16:20N 57°39' E 010°42'0 0.0
2018-Jun-04 15:56N 57°39' E 010°42'0 0.1
2018-Jun-04 15:30N 57°39' E 010°42'0 0.1
2018-Jun-04 14:59N 57°39' E 010°42'0 0.0
2018-Jun-04 14:30N 57°39' E 010°42'0 0.0
2018-Jun-04 13:16N 57°39' E 010°42'0 0.0
2018-Jun-04 12:51N 57°39' E 010°42'0 0.0
2018-Jun-04 12:29N 57°39' E 010°42'0 0.0
2018-Jun-04 12:00N 57°39' E 010°42'0 0.0
2018-Jun-04 11:28N 57°39' E 010°42'0 0.0
2018-Jun-04 11:00N 57°39' E 010°42'0 0.0
2018-Jun-04 10:30N 57°39' E 010°42'0 0.1
2018-Jun-04 10:00N 57°39' E 010°42'0 0.1
2018-Jun-04 08:43N 57°39' E 010°41'0 0.1
2018-Jun-04 08:29N 57°39' E 010°41'0 0.1
2018-Jun-04 07:52N 57°39' E 010°41'0 0.2
2018-Jun-04 07:17N 57°39' E 010°42'0 0.1
2018-Jun-04 06:23N 57°39' E 010°42'0 0.0
2018-Jun-04 06:00N 57°39' E 010°42'0 0.1
2018-Jun-04 05:30N 57°39' E 010°42'0 0.1
2018-Jun-04 05:00N 57°39' E 010°42'0 0.0
2018-Jun-04 04:19N 57°39' E 010°42'0 0.1
2018-Jun-04 03:43N 57°39' E 010°42'1 1.8
2018-Jun-04 03:14N 57°40' E 010°43'210.2
2018-Jun-04 03:00N 57°38' E 010°47'510.1
2018-Jun-04 02:30N 57°36' E 010°55'510.7
2018-Jun-04 02:00N 57°34' E 011°04'611.5
2018-Jun-04 01:30N 57°31' E 011°14'510.9
2018-Jun-04 01:00N 57°29' E 011°23'510.9
2018-Jun-04 00:30N 57°24' E 011°29'612.1
2018-Jun-04 00:00N 57°19' E 011°33'612.1
2018-Jun-03 23:30N 57°13' E 011°37'1011.9
2018-Jun-03 22:39N 57°04' E 011°44'212.0
2018-Jun-03 22:29N 57°02' E 011°45'612.0
2018-Jun-03 21:58N 56°56' E 011°48'4112.3
2018-Jun-03 18:38N 56°16' E 012°09'1612.2
2018-Jun-03 17:19N 56°07' E 012°33'3 9.4
2018-Jun-03 17:00N 56°05' E 012°36'5 9.9
2018-Jun-03 16:30N 56°01' E 012°41'510.1
2018-Jun-03 16:00N 55°56' E 012°39'612.2
2018-Jun-03 15:30N 55°50' E 012°42'612.2
2018-Jun-03 15:00N 55°44' E 012°41'510.9
2018-Jun-03 14:30N 55°38' E 012°42'4 8.9
2018-Jun-03 14:00N 55°34' E 012°42'4 8.7
2018-Jun-03 13:30N 55°29' E 012°43'3 5.3
2018-Jun-03 13:00N 55°27' E 012°42'3 5.5
2018-Jun-03 12:30N 55°24' E 012°42'4 7.6
2018-Jun-03 12:00N 55°20' E 012°41'510.0
2018-Jun-03 11:30N 55°17' E 012°48'611.9
2018-Jun-03 11:00N 55°16' E 012°57'612.7
2018-Jun-03 10:30N 55°15' E 013°09'612.8
2018-Jun-03 10:00N 55°14' E 013°20'613.0
2018-Jun-03 09:30N 55°14' E 013°31'713.3
2018-Jun-03 09:00N 55°13' E 013°43'813.2
2018-Jun-03 08:25N 55°13' E 013°56'512.9
2018-Jun-03 08:01N 55°13' E 014°05'712.1
2018-Jun-03 07:28N 55°14' E 014°17'613.1
2018-Jun-03 07:00N 55°19' E 014°23'713.2
2018-Jun-03 06:30N 55°24' E 014°31'713.2
2018-Jun-03 06:00N 55°28' E 014°40'713.2
2018-Jun-03 05:30N 55°31' E 014°51'713.2
2018-Jun-03 05:00N 55°34' E 015°01'613.0
2018-Jun-03 04:30N 55°37' E 015°12'612.8
2018-Jun-03 04:00N 55°39' E 015°23'812.8
2018-Jun-03 03:21N 55°41' E 015°37'712.7
2018-Jun-03 02:49N 55°42' E 015°48'1412.6
2018-Jun-03 01:43N 55°46' E 016°12'312.4
2018-Jun-03 01:30N 55°47' E 016°17'712.4
2018-Jun-03 00:58N 55°48' E 016°28'2212.9
2018-Jun-02 23:17N 55°48' E 017°07'613.1
2018-Jun-02 22:49N 55°47' E 017°18'412.9
2018-Jun-02 22:29N 55°47' E 017°25'813.0
2018-Jun-02 21:51N 55°47' E 017°40'513.0
2018-Jun-02 21:27N 55°47' E 017°49'813.1
2018-Jun-02 20:48N 55°47' E 018°04'413.0
2018-Jun-02 20:30N 55°46' E 018°11'813.1
2018-Jun-02 19:52N 55°46' E 018°26'713.0
2018-Jun-02 19:18N 55°46' E 018°39'413.0
2018-Jun-02 19:00N 55°46' E 018°46'713.0
2018-Jun-02 18:28N 55°46' E 018°58'612.9
2018-Jun-02 18:00N 55°45' E 019°09'612.9
2018-Jun-02 17:30N 55°45' E 019°21'613.0
2018-Jun-02 17:00N 55°45' E 019°32'713.0
2018-Jun-02 16:30N 55°45' E 019°44'713.1
2018-Jun-02 16:00N 55°45' E 019°55'613.0
2018-Jun-02 15:30N 55°44' E 020°07'713.0
2018-Jun-02 14:59N 55°44' E 020°19'713.1
2018-Jun-02 14:28N 55°44' E 020°31'613.1
2018-Jun-02 14:00N 55°44' E 020°42'713.1
2018-Jun-02 13:30N 55°44' E 020°53'510.9
2018-Jun-02 13:00N 55°44' E 021°03'3 0.8
2018-Jun-02 08:35N 55°42' E 021°08'  

Dump ship's entire track history